Archival Weather

Basrah Intl

Basrah Intl, Iraq (ORMM)

Report from: Wednesday, September 28, 2022 1:00 AM UTC
Current time: Saturday, June 22, 2024 12:52 AM UTC

Current weather – Weather history – Daily summaries
Weather forecast

Temperature18.0°C (64.4°F)
Dew point-5.0°C (23.0°F)
Winds 5 kts (2.6 m/s, 5.8 mph) West (260°)
Clouds Sky clear
Altimeter29.77 in.Hg (1008 mB)
Relative humidity20 %
Density altitude601 ft. (183 m)
Remarks Ceiling and visibility OK
No significant changes expected in the next two hours
Flight conditions Visual Meteorological Conditions
Raw dataORMM 280100Z 26005KT CAVOK 18/M05 Q1008 NOSIG
An error has occurred. This application may no longer respond until reloaded. Reload 🗙